Flight Track Log - Related Links

Times and Time Zones

All times are in EDT time to prevent confusion due to time zone crossing. See the NKS971 flight status page for this flight to view local times or setup timezone preferences in your user account.

Time Position Orientation Groundspeed Altitude Reporting Facility
EDT Latitude Longitude Course Direction KTS MPH feet Rate Location/Type
Sun 01:27:08 AM 32.8600 -97.0520 North 173 199 2,200  Level FlightAware ADS-B
Sun 01:27:48 AM 32.8260 -97.0530 181° South 220 253 2,900 1,543 Climbing FlightAware ADS-B
Sun 01:28:18 AM 32.7890 -97.0530 180° South 255 293 4,000 2,478 Climbing FlightAware ADS-B
Sun 01:28:34 AM 32.7700 -97.0530 180° South 262 302 4,800 2,667 Climbing FlightAware ADS-B
Sun 01:29:03 AM 32.7350 -97.0620 192° South 283 326 6,000 2,634 Climbing FlightAware ADS-B
Sun 01:29:15 AM 32.7250 -97.0750 228° Southwest 286 329 6,600 3,333 Climbing FlightAware ADS-B
Sun 01:29:30 AM 32.7200 -97.0990 256° West 283 326 7,500 2,864 Climbing FlightAware ADS-B
Sun 01:29:59 AM 32.7200 -97.1380 270° West 292 336 8,700 2,488 Climbing FlightAware ADS-B
Sun 01:30:11 AM 32.7200 -97.1580 270° West 297 342 9,200 2,333 Climbing FlightAware ADS-B
Sun 01:30:53 AM 32.7210 -97.2290 271° West 323 372 10,800 1,756 Climbing FlightAware ADS-B
Sun 01:31:33 AM 32.7240 -97.3080 273° West 369 425 11,600 1,448 Climbing FlightAware ADS-B
Sun 01:32:20 AM 32.7350 -97.4130 277° West 406 467 12,900 2,207 Climbing FlightAware ADS-B
Sun 01:33:00 AM 32.7440 -97.5020 277° West 404 465 14,800 2,351 Climbing FlightAware ADS-B
Sun 01:33:34 AM 32.7510 -97.5780 276° West 417 480 15,800 1,538 Climbing FlightAware ADS-B
Sun 01:34:18 AM 32.7610 -97.6780 277° West 435 501 16,800 1,814 Climbing FlightAware ADS-B
Sun 01:35:00 AM 32.7710 -97.7810 277° West 439 505 18,400 2,857 Climbing FlightAware ADS-B
Sun 01:35:42 AM 32.7790 -97.8770 276° West 410 472 20,800 2,530 Climbing FlightAware ADS-B
Sun 01:36:23 AM 32.7880 -97.9690 277° West 415 478 21,900 1,553 Climbing FlightAware ADS-B
Sun 01:37:07 AM 32.7980 -98.0680 277° West 423 487 23,000 1,412 Climbing FlightAware ADS-B
Sun 01:37:48 AM 32.8070 -98.1670 276° West 431 496 23,900 1,286 Climbing FlightAware ADS-B
Sun 01:38:31 AM 32.8160 -98.2660 276° West 441 507 24,800 772 Climbing FlightAware ADS-B
Sun 01:39:29 AM 32.8270 -98.3920 276° West 444 511 25,200 928 Climbing FlightAware ADS-B
Sun 01:40:08 AM 32.8380 -98.5090 276° West 469 540 26,300 1,301 Climbing FlightAware ADS-B
Sun 01:40:52 AM 32.8480 -98.6210 276° West 478 550 27,000 1,063 Climbing FlightAware ADS-B
Sun 01:41:27 AM 32.8560 -98.7130 276° West 478 550 27,700 929 Climbing FlightAware ADS-B
Sun 01:42:16 AM 32.8670 -98.8430 276° West 489 563 28,300 818 Climbing FlightAware ADS-B
Sun 01:42:55 AM 32.8760 -98.9510 276° West 494 568 28,900 1,012 Climbing FlightAware ADS-B
Sun 01:43:39 AM 32.8860 -99.0680 276° West 493 567 29,700 960 Climbing FlightAware ADS-B
Sun 01:44:35 AM 32.8990 -99.2200 276° West 496 571 30,500 1,000 Climbing FlightAware ADS-B
Sun 01:45:15 AM 32.9080 -99.3280 276° West 495 570 31,300 1,463 Climbing FlightAware ADS-B
Sun 01:45:57 AM 32.9170 -99.4390 276° West 483 556 32,500 1,186 Climbing FlightAware ADS-B
Sun 01:46:41 AM 32.9270 -99.5580 276° West 489 563 33,000 929 Climbing FlightAware ADS-B
Sun 01:47:21 AM 32.9350 -99.6610 275° West 485 558 33,800 1,125 Climbing FlightAware ADS-B
Sun 01:48:01 AM 32.9430 -99.7680 275° West 483 556 34,500 565 Climbing FlightAware ADS-B
Sun 01:48:46 AM 32.9510 -99.8720 275° West 483 556 34,600 74 Climbing FlightAware ADS-B
Sun 01:49:22 AM 32.9570 -99.9530 275° West 483 556 34,600 1,037 Level FlightAware ADS-B
Sun 01:50:07 AM 32.9690 -100.1000 276° West 483 556 36,000 706 Climbing FlightAware ADS-B
Sun 01:51:21 AM 32.9840 -100.2960 275° West 484 557 36,000  Level FlightAware ADS-B
Sun 01:51:59 AM 32.9900 -100.3820 275° West 484 557 36,000  Level FlightAware ADS-B
Sun 01:52:39 AM 32.9970 -100.4920 274° West 483 556 36,000  Level FlightAware ADS-B
Sun 01:53:18 AM 33.0060 -100.6040 276° West 482 555 36,000  Level FlightAware ADS-B
Sun 01:54:07 AM 33.0130 -100.7150 274° West 482 555 36,000  Level FlightAware ADS-B
Sun 01:54:44 AM 33.0230 -100.8340 276° West 479 551 36,000  Level FlightAware ADS-B
Sun 01:55:35 AM 33.0290 -100.9480 274° West 479 551 36,000  Level FlightAware ADS-B
Sun 01:56:11 AM 33.0340 -101.0290 274° West 479 551 36,000  Level FlightAware ADS-B
Sun 01:56:59 AM 33.0400 -101.1360 274° West 479 551 36,000  Level FlightAware ADS-B
Sun 01:57:36 AM 33.0450 -101.2190 274° West 479 551 36,000  Level FlightAware ADS-B
Sun 01:58:13 AM 33.0500 -101.3020 274° West 479 551 36,000  Level FlightAware ADS-B
Sun 01:59:01 AM 33.0560 -101.4100 274° West 479 551 36,000  Level FlightAware ADS-B
Sun 01:59:37 AM 33.0610 -101.4910 274° West 479 551 36,000  Level FlightAware ADS-B
Sun 02:00:25 AM 33.0670 -101.5980 274° West 479 551 36,000  Level FlightAware ADS-B
Sun 02:01:01 AM 33.0720 -101.6790 274° West 479 551 36,000  Level FlightAware ADS-B
Sun 02:01:49 AM 33.0780 -101.7870 274° West 479 551 36,000  Level FlightAware ADS-B
Sun 02:02:25 AM 33.0830 -101.8670 274° West 479 551 36,000  Level FlightAware ADS-B
Sun 02:03:06 AM 33.1060 -102.1380 276° West 486 559 36,000  Level FlightAware ADS-B
Sun 02:03:42 AM 33.1100 -102.2200 273° West 486 559 36,000  Level FlightAware ADS-B
Sun 02:04:30 AM 33.1150 -102.3300 273° West 486 559 36,000  Level FlightAware ADS-B
Sun 02:05:07 AM 33.1180 -102.4140 272° West 486 559 36,000  Level FlightAware ADS-B
Sun 02:05:44 AM 33.1220 -102.4980 273° West 486 559 36,000  Level FlightAware ADS-B
Sun 02:06:33 AM 33.1270 -102.6100 273° West 486 559 36,000  Level FlightAware ADS-B
Sun 02:07:09 AM 33.1310 -102.6920 273° West 486 559 36,000  Level FlightAware ADS-B
Sun 02:07:45 AM 33.1340 -102.7740 273° West 486 559 36,000  Level FlightAware ADS-B
Sun 02:08:21 AM 33.1380 -102.8560 273° West 486 559 36,000  Level FlightAware ADS-B
Sun 02:09:09 AM 33.1430 -102.9660 273° West 486 559 36,000  Level FlightAware ADS-B
Sun 02:09:45 AM 33.1460 -103.0480 273° West 486 559 36,000  Level FlightAware ADS-B
Sun 02:10:33 AM 33.1510 -103.1570 273° West 486 559 36,000  Level FlightAware ADS-B
Sun 02:11:18 AM 33.1550 -103.2600 273° West 486 559 36,000  Level FlightAware ADS-B
Sun 02:11:54 AM 33.1590 -103.3420 273° West 486 559 36,000  Level FlightAware ADS-B
Sun 02:12:30 AM 33.1630 -103.4240 273° West 486 559 36,000  Level FlightAware ADS-B
Sun 02:13:14 AM 33.1947 -103.7661 273° West 479 551 36,000  Level Albuquerque Center
Sun 02:14:15 AM 33.2019 -103.9278 273° West 487 560 36,000  Level Albuquerque Center
Sun 02:15:15 AM 33.2089 -104.1014 273° West 486 559 36,000  Level Albuquerque Center
Sun 02:16:16 AM 33.2150 -104.2617 273° West 485 558 36,000  Level Albuquerque Center
Sun 02:17:16 AM 33.2206 -104.3950 273° West 491 565 36,000  Level Albuquerque Center
Sun 02:18:16 AM 33.2269 -104.5556 273° West 490 564 36,000  Level Albuquerque Center
Sun 02:19:17 AM 33.2325 -104.7517 272° West 490 564 36,000  Level Albuquerque Center
Sun 02:20:17 AM 33.2392 -104.9092 273° West 479 551 36,000  Level Albuquerque Center
Sun 02:21:18 AM 33.2456 -105.0683 273° West 481 554 36,000  Level Albuquerque Center
Sun 02:22:18 AM 33.2511 -105.2286 272° West 484 557 36,000  Level Albuquerque Center
Sun 02:23:18 AM 33.2278 -105.3833 260° West 475 547 36,000  Level Albuquerque Center
Sun 02:24:19 AM 33.1931 -105.5361 255° West 479 551 36,000  Level Albuquerque Center
Sun 02:25:19 AM 33.1603 -105.6889 256° West 479 551 36,000 -50 Level Albuquerque Center
Sun 02:26:19 AM 33.1239 -105.8394 254° West 476 548 35,900 -50 Descending Albuquerque Center
Sun 02:27:20 AM 33.0883 -105.9911 254° West 476 548 35,900 50 Level Albuquerque Center
Sun 02:28:20 AM 33.0525 -106.1422 254° West 476 548 36,000 50 Climbing Albuquerque Center
Sun 02:29:21 AM 33.0178 -106.2939 255° West 477 549 36,000  Level Albuquerque Center
Sun 02:30:21 AM 32.9919 -106.4489 259° West 484 557 36,000  Level Albuquerque Center
Sun 02:31:21 AM 33.0050 -106.6042 276° West 483 556 36,000  Level Albuquerque Center
Sun 02:32:22 AM 33.0164 -106.7622 275° West 482 555 36,000 -50 Level Albuquerque Center
Sun 02:33:22 AM 33.0294 -106.9217 276° West 485 558 35,900 -50 Descending Albuquerque Center
Sun 02:34:22 AM 33.0419 -107.0786 275° West 483 556 35,900  Level Albuquerque Center
Sun 02:35:23 AM 33.0536 -107.2381 275° West 485 558 35,900 50 Level Albuquerque Center
Sun 02:36:23 AM 33.0656 -107.3958 275° West 485 558 36,000 50 Climbing Albuquerque Center
Sun 02:37:24 AM 33.0764 -107.5531 275° West 482 555 36,000  Level Albuquerque Center
Sun 02:38:24 AM 33.0867 -107.7131 274° West 485 558 36,000 -50 Level Albuquerque Center
Sun 02:39:24 AM 33.0994 -107.8694 276° West 481 554 35,900 -50 Descending Albuquerque Center
Sun 02:40:25 AM 33.1097 -108.0294 274° West 483 556 35,900 50 Level Albuquerque Center
Sun 02:41:25 AM 33.1214 -108.1872 275° West 482 555 36,000  Climbing Albuquerque Center
Sun 02:42:25 AM 33.1314 -108.3439 274° West 478 550 35,900  Descending Albuquerque Center
Sun 02:43:26 AM 33.1417 -108.4981 275° West 471 542 36,000  Climbing Albuquerque Center
Sun 02:44:26 AM 33.1553 -108.6808 275° West 464 534 35,900 -200 Descending Albuquerque Center
Sun 02:45:26 AM 33.1644 -108.8336 274° West 463 533 35,600 -645 Descending Albuquerque Center
Sun 02:46:27 AM 33.1739 -108.9867 274° West 464 534 34,600 -843 Descending Albuquerque Center
Sun 02:47:27 AM 33.1828 -109.1425 274° West 473 544 33,900 -347 Descending Albuquerque Center
Sun 02:48:28 AM 33.1903 -109.2992 273° West 474 545 33,900 50 Level Albuquerque Center
Sun 02:49:28 AM 33.2011 -109.4525 275° West 469 540 34,000 -600 Climbing Albuquerque Center
Sun 02:50:28 AM 33.2106 -109.6064 274° West 466 536 32,700 -2,331 Descending Albuquerque Center
Sun 02:51:29 AM 33.2217 -109.7672 275° West 482 555 29,300 -2,119 Descending Albuquerque Center
Sun 02:57:13 AM 33.3360 -110.5760 275° West 353 406 18,400 -1,664 Descending FlightAware ADS-B
Sun 02:58:02 AM 33.3330 -110.6570 267° West 353 406 18,400  Level FlightAware ADS-B
Sun 02:58:26 AM 33.3310 -110.6970 267° West 353 406 18,400  Level FlightAware ADS-B
Sun 02:59:15 AM 33.3270 -110.7780 267° West 353 406 18,400 -3,677 Level FlightAware ADS-B
Sun 02:59:59 AM 33.2680 -110.8680 232° Southwest 312 359 12,700 -4,786 Descending FlightAware ADS-B
Sun 03:00:39 AM 33.2530 -110.9310 254° West 307 353 11,700 -1,214 Descending FlightAware ADS-B
Sun 03:01:23 AM 33.2350 -111.0030 253° West 311 358 11,000 -788 Descending FlightAware ADS-B
Sun 03:02:18 AM 33.2130 -111.0910 253° West 300 345 10,400 -645 Descending FlightAware ADS-B
Sun 03:02:56 AM 33.1980 -111.1530 254° West 300 345 10,000 -308 Descending FlightAware ADS-B
Sun 03:03:36 AM 33.1840 -111.2070 253° West 300 345 10,000  Level FlightAware ADS-B
Sun 03:04:10 AM 33.1720 -111.2530 253° West 300 345 10,000 -2,486 Level FlightAware ADS-B
Sun 03:04:46 AM 33.1580 -111.3170 255° West 247 284 7,100 -3,414 Descending FlightAware ADS-B
Sun 03:05:08 AM 33.1530 -111.3450 258° West 240 276 6,700 -480 Descending FlightAware ADS-B
Sun 03:05:36 AM 33.1450 -111.3760 253° West 240 276 6,700 -1,297 Level FlightAware ADS-B
Sun 03:05:45 AM 33.1590 -111.3910 318° Northwest 223 257 5,900 -1,737 Descending FlightAware ADS-B
Sun 03:06:14 AM 33.1650 -111.4240 282° West 209 241 5,600 -737 Descending FlightAware ADS-B
Sun 03:06:42 AM 33.1690 -111.4550 279° West 198 228 5,200 -1,019 Descending FlightAware ADS-B
Sun 03:07:07 AM 33.1730 -111.4810 280° West 204 235 4,700 -1,179 Descending FlightAware ADS-B
Sun 03:07:38 AM 33.1860 -111.5120 297° West 191 220 4,100 -1,017 Descending FlightAware ADS-B
Sun 03:08:06 AM 33.2020 -111.5310 315° West 166 191 3,700 -643 Descending FlightAware ADS-B
Sun 03:08:34 AM 33.2170 -111.5480 317° Northwest 152 175 3,500 -621 Descending FlightAware ADS-B
Sun 03:09:04 AM 33.2320 -111.5660 315° West 149 171 3,100 -469 Descending FlightAware ADS-B
Sun 03:09:38 AM 33.2460 -111.5830 315° West 147 169 3,000 -692 Descending FlightAware ADS-B
Sun 03:10:22 AM 33.2667 -111.6000 315° West 131 151 2,200 -865 Descending Phoenix TRACON
Sun 03:11:22 AM 33.3000 -111.6333 320° Northwest 135 155 1,500 -700 Descending Phoenix TRACON

Login

Don't have an account? Register now (free) for customized features, flight alerts, and more!